Main page
METAR-TAF:

METAR-TAF

Airports :

Khon Kaen Airport

Khon Kaen, Thailand

latitude: 16-26N, longitude: 102-50E, elevation: 165 m

Current weather observation

The report was made 54 minutes ago, at 17:00 UTC
Wind 3 kt from the North/Northeast
Temperature 16°C
Humidity 59%
Pressure 1017 hPa
Visibility: 8000 m

METAR: VTUK 091700Z 03003KT 8000 NSC 16/08 Q1017 NOSIG

Time: 00:54 (17:54 UTC)

Forecast

The report was made 54 minutes ago, at 17:00 UTC
Forecast valid from 09 at 18 UTC to 10 at 18 UTC
Wind 6 kt from the Northeast
Visibility: 8000 m

TAF: VTUK 091700Z 0918/1018 04006KT 8000 NSC

Weather observations and forecasts of more than 4000 airports (METAR and TAF reports).

The available stations are represented by yellow and red dots on the map.

Hover mouse over dot to see the name of the station.

Then click to see weather observations and forecasts.

To change the map : click on the green buttons with a black cross to zoom in, on the green button with a dash to zoom out, or on the green arrows for adjacent maps.


METAR-TAF: